Es ist keine erhöhte Aufmerksamkeit aufgrund des Wetters notwendig.    Es gibt keine Warnungen.
Webcam Vorhersage DWD Regenradar Wetterlage NRW Blitze Wind GFS-Modell
webcam


Kleve - Düffelward SSO more information Kleve - Düffelward SSO


Goch more information Goch


Weitere Templates dieser Seite und andere Webseiten:

Meteotemplate

Awekas - Template

weather34 - Template

Wetter im Erzgebirge


te
World Weather Websites
Bo-Rox Wetter Topsites List
 

METAR-Meldungen aus der Umgebung

   
EDLV - Goch
Aktualisierung: 24-01-2020 12:50
Nebel, Teilweise bewölkt  
Nebel, Teilweise bewölkt  
   Wind: variiert 3.7 km/h
Wind: variiert 3.7 km/h
Temperatur: 1°C
Taupunkt: 1°C
Luftfeuchte: 100%
Luftdruck: 1024 hPa
Bewölkt: Teilweise bewölkt
Sichtbarkeit: 3 km
Bewölkung: Teilweise bewölkt 100 ft
EDLV 241150Z VRB02KT 2800 BR SCT001 01/01 Q1024
EDLV - Emmerich
Aktualisierung: 24-01-2020 12:50
Nebel, Teilweise bewölkt  
Nebel, Teilweise bewölkt  
   Wind: variiert 3.7 km/h
Wind: variiert 3.7 km/h
Temperatur: 1°C
Taupunkt: 1°C
Luftfeuchte: 100%
Luftdruck: 1024 hPa
Bewölkt: Teilweise bewölkt
Sichtbarkeit: 3 km
Bewölkung: Teilweise bewölkt 100 ft
EDLV 241150Z VRB02KT 2800 BR SCT001 01/01 Q1024
EHDL - Nijmegen
Aktualisierung: 24-01-2020 12:55
Nebel, Bewölkt  
Nebel, Bewölkt  
   Wind: SSW 9.3 km/h
Wind: SSW 9.3 km/h
Temperatur: 1°C
Gefühlt: -2°C
Taupunkt: 1°C
Luftfeuchte: 100%
Luftdruck: 1023 hPa
Bewölkt: Bewölkt
Sichtbarkeit: 4 km
Bewölkung: Bewölkt 300 ft
EHDL 241155Z AUTO 20005KT 160V270 4400 BR OVC003 01/01 Q1023 YLO
EHDL - Arnhem
Aktualisierung: 24-01-2020 12:55
Nebel, Bewölkt  
Nebel, Bewölkt  
   Wind: SSW 9.3 km/h
Wind: SSW 9.3 km/h
Temperatur: 1°C
Gefühlt: -2°C
Taupunkt: 1°C
Luftfeuchte: 100%
Luftdruck: 1023 hPa
Bewölkt: Bewölkt
Sichtbarkeit: 4 km
Bewölkung: Bewölkt 300 ft
EHDL 241155Z AUTO 20005KT 160V270 4400 BR OVC003 01/01 Q1023 YLO
EDLV - Kalkar
Aktualisierung: 24-01-2020 12:50
Nebel, Teilweise bewölkt  
Nebel, Teilweise bewölkt  
   Wind: variiert 3.7 km/h
Wind: variiert 3.7 km/h
Temperatur: 1°C
Taupunkt: 1°C
Luftfeuchte: 100%
Luftdruck: 1024 hPa
Bewölkt: Teilweise bewölkt
Sichtbarkeit: 3 km
Bewölkung: Teilweise bewölkt 100 ft
EDLV 241150Z VRB02KT 2800 BR SCT001 01/01 Q1024
 

Script entwickelt von  Saratoga-weather.org Angepasst für das Template von  Weerstation Leuven

Sie finden Wetter-Infos dieser Station auch auf:

UK Metoffice

European Weather Network

WeatherCloud

Weather Underground

Germany Weather Network

AWEKAS

Neuwetter

Wettersektor

Von uns verwendete Ausrüstung:

Wetterstation
Davis Vantage Pro2

Wetterprogramm
Meteobridge

WetterComputer
Computer

Davis Vantage Pro2

Meteobridge

Computer